sensor_id;sensor_type;location;lat;lon;timestamp;pressure;altitude;pressure_sealevel;temperature;humidity
71476;BME280;59286;59.274;17.974;2023-01-28T00:02:02;101963.69;;;-2.92;91.83
71476;BME280;59286;59.274;17.974;2023-01-28T00:04:27;101956.00;;;-2.92;91.97
71476;BME280;59286;59.274;17.974;2023-01-28T00:06:53;101968.78;;;-2.84;92.29
71476;BME280;59286;59.274;17.974;2023-01-28T00:09:19;101958.50;;;-2.84;92.21
71476;BME280;59286;59.274;17.974;2023-01-28T00:11:44;101952.41;;;-2.83;92.60
71476;BME280;59286;59.274;17.974;2023-01-28T00:14:10;101957.47;;;-2.75;92.92
71476;BME280;59286;59.274;17.974;2023-01-28T00:16:36;101946.34;;;-2.67;92.25
71476;BME280;59286;59.274;17.974;2023-01-28T00:19:02;101933.16;;;-2.64;91.98
71476;BME280;59286;59.274;17.974;2023-01-28T00:21:27;101934.56;;;-2.62;91.71
71476;BME280;59286;59.274;17.974;2023-01-28T00:23:54;101929.38;;;-2.54;91.47
71476;BME280;59286;59.274;17.974;2023-01-28T00:26:21;101926.63;;;-2.52;90.98
71476;BME280;59286;59.274;17.974;2023-01-28T00:28:47;101927.44;;;-2.52;90.78
71476;BME280;59286;59.274;17.974;2023-01-28T00:33:43;101915.19;;;-2.50;90.42
71476;BME280;59286;59.274;17.974;2023-01-28T00:36:09;101916.81;;;-2.49;89.83
71476;BME280;59286;59.274;17.974;2023-01-28T00:38:37;101912.28;;;-2.47;90.29
71476;BME280;59286;59.274;17.974;2023-01-28T00:41:11;101909.28;;;-2.50;90.33
71476;BME280;59286;59.274;17.974;2023-01-28T00:43:37;101908.31;;;-2.49;89.69
71476;BME280;59286;59.274;17.974;2023-01-28T00:46:07;101908.47;;;-2.51;89.98
71476;BME280;59286;59.274;17.974;2023-01-28T00:48:34;101891.41;;;-2.58;90.08
71476;BME280;59286;59.274;17.974;2023-01-28T00:50:59;101899.53;;;-2.55;90.01
71476;BME280;59286;59.274;17.974;2023-01-28T00:53:25;101892.38;;;-2.59;89.84
71476;BME280;59286;59.274;17.974;2023-01-28T00:55:50;101877.13;;;-2.61;90.05
71476;BME280;59286;59.274;17.974;2023-01-28T00:58:18;101874.25;;;-2.58;89.31
71476;BME280;59286;59.274;17.974;2023-01-28T01:00:43;101874.56;;;-2.61;89.45
71476;BME280;59286;59.274;17.974;2023-01-28T01:03:09;101863.69;;;-2.63;89.36
71476;BME280;59286;59.274;17.974;2023-01-28T01:05:34;101866.72;;;-2.59;89.31
71476;BME280;59286;59.274;17.974;2023-01-28T01:08:00;101871.31;;;-2.55;88.90
71476;BME280;59286;59.274;17.974;2023-01-28T01:10:25;101868.13;;;-2.57;88.68
71476;BME280;59286;59.274;17.974;2023-01-28T01:12:51;101876.44;;;-2.55;88.68
71476;BME280;59286;59.274;17.974;2023-01-28T01:15:17;101863.00;;;-2.57;88.88
71476;BME280;59286;59.274;17.974;2023-01-28T01:17:46;101872.91;;;-2.54;88.72
71476;BME280;59286;59.274;17.974;2023-01-28T01:20:18;101858.41;;;-2.61;88.98
71476;BME280;59286;59.274;17.974;2023-01-28T01:22:44;101846.34;;;-2.61;88.55
71476;BME280;59286;59.274;17.974;2023-01-28T01:25:11;101854.34;;;-2.56;88.42
71476;BME280;59286;59.274;17.974;2023-01-28T01:27:36;101849.91;;;-2.62;88.62
71476;BME280;59286;59.274;17.974;2023-01-28T01:30:02;101853.09;;;-2.60;88.54
71476;BME280;59286;59.274;17.974;2023-01-28T01:32:29;101839.63;;;-2.62;88.64
71476;BME280;59286;59.274;17.974;2023-01-28T01:34:55;101830.94;;;-2.61;88.60
71476;BME280;59286;59.274;17.974;2023-01-28T01:37:20;101824.13;;;-2.68;88.84
71476;BME280;59286;59.274;17.974;2023-01-28T01:39:45;101818.56;;;-2.72;88.38
71476;BME280;59286;59.274;17.974;2023-01-28T01:42:12;101808.50;;;-2.73;88.34
71476;BME280;59286;59.274;17.974;2023-01-28T01:45:06;101815.03;;;-2.71;88.54
71476;BME280;59286;59.274;17.974;2023-01-28T01:47:58;101811.06;;;-2.73;88.75
71476;BME280;59286;59.274;17.974;2023-01-28T01:50:50;101811.69;;;-2.71;88.44
71476;BME280;59286;59.274;17.974;2023-01-28T01:53:19;101801.16;;;-2.76;88.75
71476;BME280;59286;59.274;17.974;2023-01-28T01:55:48;101806.72;;;-2.73;88.15
71476;BME280;59286;59.274;17.974;2023-01-28T01:58:17;101806.09;;;-2.75;88.83
71476;BME280;59286;59.274;17.974;2023-01-28T02:00:45;101794.72;;;-2.72;88.36
71476;BME280;59286;59.274;17.974;2023-01-28T02:03:10;101797.09;;;-2.71;88.30
71476;BME280;59286;59.274;17.974;2023-01-28T02:05:36;101791.16;;;-2.71;88.73
71476;BME280;59286;59.274;17.974;2023-01-28T02:08:03;101788.78;;;-2.73;88.11
71476;BME280;59286;59.274;17.974;2023-01-28T02:11:06;101788.41;;;-2.70;88.19
71476;BME280;59286;59.274;17.974;2023-01-28T02:13:36;101751.88;;;-2.72;88.33
71476;BME280;59286;59.274;17.974;2023-01-28T02:16:04;101751.88;;;-2.72;88.05
71476;BME280;59286;59.274;17.974;2023-01-28T02:18:31;101753.09;;;-2.68;88.32
71476;BME280;59286;59.274;17.974;2023-01-28T02:24:09;101741.75;;;-2.59;88.09
71476;BME280;59286;59.274;17.974;2023-01-28T02:26:54;101745.31;;;-2.60;87.62
71476;BME280;59286;59.274;17.974;2023-01-28T02:29:43;101731.44;;;-2.65;87.83
71476;BME280;59286;59.274;17.974;2023-01-28T02:37:54;101716.47;;;-2.62;87.67
71476;BME280;59286;59.274;17.974;2023-01-28T02:40:27;101707.97;;;-2.62;88.12
71476;BME280;59286;59.274;17.974;2023-01-28T02:42:54;101705.59;;;-2.64;87.62
71476;BME280;59286;59.274;17.974;2023-01-28T02:45:30;101702.50;;;-2.59;87.55
71476;BME280;59286;59.274;17.974;2023-01-28T02:48:15;101702.03;;;-2.63;88.06
71476;BME280;59286;59.274;17.974;2023-01-28T02:50:51;101692.41;;;-2.61;88.06
71476;BME280;59286;59.274;17.974;2023-01-28T02:53:39;101689.69;;;-2.59;87.92
71476;BME280;59286;59.274;17.974;2023-01-28T02:56:35;101690.72;;;-2.54;87.25
71476;BME280;59286;59.274;17.974;2023-01-28T03:04:43;101668.41;;;-2.53;87.86
71476;BME280;59286;59.274;17.974;2023-01-28T03:07:11;101671.22;;;-2.48;87.68
71476;BME280;59286;59.274;17.974;2023-01-28T03:09:41;101665.34;;;-2.42;87.97
71476;BME280;59286;59.274;17.974;2023-01-28T03:12:14;101667.00;;;-2.35;87.75
71476;BME280;59286;59.274;17.974;2023-01-28T03:15:02;101657.97;;;-2.31;87.93
71476;BME280;59286;59.274;17.974;2023-01-28T03:17:54;101648.31;;;-2.29;87.97
71476;BME280;59286;59.274;17.974;2023-01-28T03:21:03;101644.78;;;-2.28;87.67
71476;BME280;59286;59.274;17.974;2023-01-28T03:24:09;101655.28;;;-2.23;87.76
71476;BME280;59286;59.274;17.974;2023-01-28T03:27:17;101656.69;;;-2.20;87.63
71476;BME280;59286;59.274;17.974;2023-01-28T03:30:06;101649.41;;;-2.17;87.43
71476;BME280;59286;59.274;17.974;2023-01-28T03:32:52;101646.28;;;-2.12;87.17
71476;BME280;59286;59.274;17.974;2023-01-28T03:35:38;101636.56;;;-2.17;87.78
71476;BME280;59286;59.274;17.974;2023-01-28T03:38:22;101634.84;;;-2.10;87.18
71476;BME280;59286;59.274;17.974;2023-01-28T03:40:57;101632.09;;;-2.08;87.47
71476;BME280;59286;59.274;17.974;2023-01-28T03:43:25;101617.47;;;-2.08;87.49
71476;BME280;59286;59.274;17.974;2023-01-28T03:45:50;101609.97;;;-2.09;87.34
71476;BME280;59286;59.274;17.974;2023-01-28T03:48:17;101614.78;;;-2.00;87.71
71476;BME280;59286;59.274;17.974;2023-01-28T03:50:43;101617.78;;;-1.96;87.37
71476;BME280;59286;59.274;17.974;2023-01-28T03:53:08;101599.38;;;-2.00;87.41
71476;BME280;59286;59.274;17.974;2023-01-28T03:55:37;101593.84;;;-1.97;87.53
71476;BME280;59286;59.274;17.974;2023-01-28T03:58:03;101594.28;;;-1.93;87.32
71476;BME280;59286;59.274;17.974;2023-01-28T04:00:30;101591.91;;;-1.88;87.35
71476;BME280;59286;59.274;17.974;2023-01-28T04:02:57;101590.16;;;-1.87;87.35
71476;BME280;59286;59.274;17.974;2023-01-28T04:05:22;101581.69;;;-1.81;87.46
71476;BME280;59286;59.274;17.974;2023-01-28T04:07:48;101586.91;;;-1.68;87.88
71476;BME280;59286;59.274;17.974;2023-01-28T04:10:16;101579.88;;;-1.53;87.27
71476;BME280;59286;59.274;17.974;2023-01-28T04:12:41;101565.47;;;-1.48;86.78
71476;BME280;59286;59.274;17.974;2023-01-28T04:15:08;101548.22;;;-1.54;86.93
71476;BME280;59286;59.274;17.974;2023-01-28T04:17:43;101552.25;;;-1.38;86.47
71476;BME280;59286;59.274;17.974;2023-01-28T04:20:09;101558.22;;;-1.31;86.38
71476;BME280;59286;59.274;17.974;2023-01-28T04:22:35;101540.19;;;-1.38;86.27
71476;BME280;59286;59.274;17.974;2023-01-28T04:25:00;101555.84;;;-1.26;86.62
71476;BME280;59286;59.274;17.974;2023-01-28T04:27:26;101552.50;;;-1.20;85.85
71476;BME280;59286;59.274;17.974;2023-01-28T04:29:51;101535.47;;;-1.21;86.16
71476;BME280;59286;59.274;17.974;2023-01-28T04:32:16;101536.09;;;-1.19;86.46
71476;BME280;59286;59.274;17.974;2023-01-28T04:34:41;101538.88;;;-1.14;85.86
71476;BME280;59286;59.274;17.974;2023-01-28T04:37:07;101542.44;;;-1.15;85.85
71476;BME280;59286;59.274;17.974;2023-01-28T04:39:33;101530.19;;;-1.13;86.56
71476;BME280;59286;59.274;17.974;2023-01-28T04:41:58;101519.88;;;-1.13;86.16
71476;BME280;59286;59.274;17.974;2023-01-28T04:44:24;101511.59;;;-1.02;86.36
71476;BME280;59286;59.274;17.974;2023-01-28T04:46:49;101491.81;;;-1.02;86.43
71476;BME280;59286;59.274;17.974;2023-01-28T04:49:14;101504.47;;;-1.00;85.62
71476;BME280;59286;59.274;17.974;2023-01-28T04:51:39;101492.03;;;-1.03;86.29
71476;BME280;59286;59.274;17.974;2023-01-28T04:54:06;101493.59;;;-1.02;85.76
71476;BME280;59286;59.274;17.974;2023-01-28T04:56:31;101497.94;;;-1.03;86.02
71476;BME280;59286;59.274;17.974;2023-01-28T04:58:57;101492.03;;;-1.03;85.51
71476;BME280;59286;59.274;17.974;2023-01-28T05:01:22;101503.31;;;-0.98;85.50
71476;BME280;59286;59.274;17.974;2023-01-28T05:03:49;101492.78;;;-1.03;85.81
71476;BME280;59286;59.274;17.974;2023-01-28T05:06:14;101486.66;;;-0.95;86.07
71476;BME280;59286;59.274;17.974;2023-01-28T05:08:40;101491.63;;;-0.87;85.39
71476;BME280;59286;59.274;17.974;2023-01-28T05:11:06;101477.19;;;-0.81;84.98
71476;BME280;59286;59.274;17.974;2023-01-28T05:13:31;101479.16;;;-0.83;86.10
71476;BME280;59286;59.274;17.974;2023-01-28T05:15:57;101466.88;;;-0.81;85.64
71476;BME280;59286;59.274;17.974;2023-01-28T05:18:22;101459.16;;;-0.81;85.13
71476;BME280;59286;59.274;17.974;2023-01-28T05:20:47;101457.59;;;-0.76;85.22
71476;BME280;59286;59.274;17.974;2023-01-28T05:23:13;101447.69;;;-0.79;85.15
71476;BME280;59286;59.274;17.974;2023-01-28T05:25:38;101440.19;;;-0.80;85.38
71476;BME280;59286;59.274;17.974;2023-01-28T05:28:04;101437.78;;;-0.75;85.53
71476;BME280;59286;59.274;17.974;2023-01-28T05:30:29;101438.00;;;-0.77;85.39
71476;BME280;59286;59.274;17.974;2023-01-28T05:32:55;101414.59;;;-0.69;86.02
71476;BME280;59286;59.274;17.974;2023-01-28T05:35:20;101407.91;;;-0.70;85.59
71476;BME280;59286;59.274;17.974;2023-01-28T05:37:46;101395.63;;;-0.68;85.65
71476;BME280;59286;59.274;17.974;2023-01-28T05:40:11;101408.47;;;-0.61;85.72
71476;BME280;59286;59.274;17.974;2023-01-28T05:42:37;101395.59;;;-0.55;85.33
71476;BME280;59286;59.274;17.974;2023-01-28T05:45:03;101387.66;;;-0.53;85.54
71476;BME280;59286;59.274;17.974;2023-01-28T05:47:28;101390.63;;;-0.50;85.77
71476;BME280;59286;59.274;17.974;2023-01-28T05:49:53;101395.56;;;-0.48;85.67
71476;BME280;59286;59.274;17.974;2023-01-28T05:52:19;101400.50;;;-0.40;85.51
71476;BME280;59286;59.274;17.974;2023-01-28T05:54:44;101389.41;;;-0.41;85.84
71476;BME280;59286;59.274;17.974;2023-01-28T05:57:09;101388.03;;;-0.43;85.67
71476;BME280;59286;59.274;17.974;2023-01-28T05:59:35;101392.94;;;-0.35;86.11
71476;BME280;59286;59.274;17.974;2023-01-28T06:02:00;101392.94;;;-0.29;86.50
71476;BME280;59286;59.274;17.974;2023-01-28T06:04:25;101387.16;;;-0.24;86.39
71476;BME280;59286;59.274;17.974;2023-01-28T06:06:51;101388.34;;;-0.14;86.55
71476;BME280;59286;59.274;17.974;2023-01-28T06:09:16;101388.34;;;-0.14;86.20
71476;BME280;59286;59.274;17.974;2023-01-28T06:11:41;101382.38;;;-0.14;86.61
71476;BME280;59286;59.274;17.974;2023-01-28T06:14:07;101382.19;;;-0.13;86.36
71476;BME280;59286;59.274;17.974;2023-01-28T06:16:32;101374.44;;;-0.13;86.72
71476;BME280;59286;59.274;17.974;2023-01-28T06:18:57;101385.91;;;-0.02;86.66
71476;BME280;59286;59.274;17.974;2023-01-28T06:21:23;101381.59;;;-0.08;86.58
71476;BME280;59286;59.274;17.974;2023-01-28T06:23:48;101375.25;;;-0.12;86.31
71476;BME280;59286;59.274;17.974;2023-01-28T06:26:14;101368.69;;;-0.08;86.15
71476;BME280;59286;59.274;17.974;2023-01-28T06:28:39;101374.22;;;-0.05;86.24
71476;BME280;59286;59.274;17.974;2023-01-28T06:31:04;101365.75;;;-0.12;86.30
71476;BME280;59286;59.274;17.974;2023-01-28T06:33:33;101375.25;;;-0.12;86.21
71476;BME280;59286;59.274;17.974;2023-01-28T06:36:01;101373.63;;;-0.07;86.73
71476;BME280;59286;59.274;17.974;2023-01-28T06:38:27;101367.31;;;-0.11;86.39
71476;BME280;59286;59.274;17.974;2023-01-28T06:40:53;101371.28;;;-0.08;86.31
71476;BME280;59286;59.274;17.974;2023-01-28T06:43:20;101381.38;;;-0.07;86.57
71476;BME280;59286;59.274;17.974;2023-01-28T06:45:51;101371.66;;;-0.11;86.28
71476;BME280;59286;59.274;17.974;2023-01-28T06:48:17;101371.84;;;-0.06;86.46
71476;BME280;59286;59.274;17.974;2023-01-28T06:50:42;101367.09;;;-0.09;86.44
71476;BME280;59286;59.274;17.974;2023-01-28T06:53:07;101364.53;;;-0.09;86.91
71476;BME280;59286;59.274;17.974;2023-01-28T06:55:33;101362.00;;;-0.16;87.23
71476;BME280;59286;59.274;17.974;2023-01-28T06:57:58;101374.81;;;-0.09;87.27
71476;BME280;59286;59.274;17.974;2023-01-28T07:00:24;101364.16;;;-0.13;87.11
71476;BME280;59286;59.274;17.974;2023-01-28T07:02:49;101362.59;;;-0.14;87.47
71476;BME280;59286;59.274;17.974;2023-01-28T07:05:14;101360.38;;;-0.10;87.35
71476;BME280;59286;59.274;17.974;2023-01-28T07:07:40;101352.22;;;-0.07;87.57
71476;BME280;59286;59.274;17.974;2023-01-28T07:10:06;101351.06;;;-0.11;87.58
71476;BME280;59286;59.274;17.974;2023-01-28T07:12:31;101361.34;;;-0.05;86.99
71476;BME280;59286;59.274;17.974;2023-01-28T07:14:56;101364.13;;;-0.06;87.69
71476;BME280;59286;59.274;17.974;2023-01-28T07:17:22;101349.69;;;-0.14;87.33
71476;BME280;59286;59.274;17.974;2023-01-28T07:19:47;101351.84;;;-0.11;87.97
71476;BME280;59286;59.274;17.974;2023-01-28T07:22:13;101347.91;;;-0.13;87.82
71476;BME280;59286;59.274;17.974;2023-01-28T07:24:38;101350.44;;;-0.07;87.85
71476;BME280;59286;59.274;17.974;2023-01-28T07:27:03;101359.75;;;-0.06;87.87
71476;BME280;59286;59.274;17.974;2023-01-28T07:29:29;101344.28;;;-0.06;88.05
71476;BME280;59286;59.274;17.974;2023-01-28T07:31:54;101335.00;;;-0.07;87.95
71476;BME280;59286;59.274;17.974;2023-01-28T07:34:19;101345.50;;;-0.08;87.84
71476;BME280;59286;59.274;17.974;2023-01-28T07:36:45;101341.94;;;-0.07;88.52
71476;BME280;59286;59.274;17.974;2023-01-28T07:39:10;101340.31;;;-0.02;88.21
71476;BME280;59286;59.274;17.974;2023-01-28T07:41:35;101358.94;;;0.00;88.32
71476;BME280;59286;59.274;17.974;2023-01-28T07:44:01;101345.72;;;-0.10;88.54
71476;BME280;59286;59.274;17.974;2023-01-28T07:46:27;101347.28;;;-0.09;88.71
71476;BME280;59286;59.274;17.974;2023-01-28T07:48:52;101351.63;;;-0.03;88.65
71476;BME280;59286;59.274;17.974;2023-01-28T07:51:18;101341.91;;;-0.01;88.23
71476;BME280;59286;59.274;17.974;2023-01-28T07:53:43;101341.09;;;-0.01;88.73
71476;BME280;59286;59.274;17.974;2023-01-28T07:56:08;101323.44;;;0.03;88.69
71476;BME280;59286;59.274;17.974;2023-01-28T07:58:34;101319.88;;;0.04;89.13
71476;BME280;59286;59.274;17.974;2023-01-28T08:01:00;101318.66;;;0.06;88.81
71476;BME280;59286;59.274;17.974;2023-01-28T08:03:26;101323.59;;;0.08;88.75
71476;BME280;59286;59.274;17.974;2023-01-28T08:05:53;101309.38;;;0.05;89.05
71476;BME280;59286;59.274;17.974;2023-01-28T08:08:20;101316.09;;;0.06;89.03
71476;BME280;59286;59.274;17.974;2023-01-28T08:10:45;101313.72;;;0.05;88.94
71476;BME280;59286;59.274;17.974;2023-01-28T08:13:12;101307.97;;;0.03;88.96
71476;BME280;59286;59.274;17.974;2023-01-28T08:15:38;101296.66;;;0.10;88.77
71476;BME280;59286;59.274;17.974;2023-01-28T08:18:05;101300.41;;;0.08;89.05
71476;BME280;59286;59.274;17.974;2023-01-28T08:20:31;101306.38;;;0.08;89.11
71476;BME280;59286;59.274;17.974;2023-01-28T08:23:07;101280.06;;;-0.01;89.19
71476;BME280;59286;59.274;17.974;2023-01-28T08:25:34;101289.50;;;0.12;88.91
71476;BME280;59286;59.274;17.974;2023-01-28T08:28:00;101285.13;;;0.13;88.98
71476;BME280;59286;59.274;17.974;2023-01-28T08:30:26;101282.78;;;0.11;89.39
71476;BME280;59286;59.274;17.974;2023-01-28T08:32:55;101274.09;;;0.06;89.42
71476;BME280;59286;59.274;17.974;2023-01-28T08:35:20;101281.41;;;0.09;89.65
71476;BME280;59286;59.274;17.974;2023-01-28T08:37:45;101274.84;;;0.13;90.01
71476;BME280;59286;59.274;17.974;2023-01-28T08:40:11;101280.75;;;0.13;90.01
71476;BME280;59286;59.274;17.974;2023-01-28T08:42:36;101269.03;;;0.17;90.11
71476;BME280;59286;59.274;17.974;2023-01-28T08:45:02;101263.69;;;0.19;89.74
71476;BME280;59286;59.274;17.974;2023-01-28T08:47:27;101245.47;;;0.14;90.03
71476;BME280;59286;59.274;17.974;2023-01-28T08:49:53;101258.94;;;0.16;90.32
71476;BME280;59286;59.274;17.974;2023-01-28T08:52:18;101248.63;;;0.16;90.46
71476;BME280;59286;59.274;17.974;2023-01-28T08:54:43;101238.69;;;0.19;90.28
71476;BME280;59286;59.274;17.974;2023-01-28T08:57:08;101260.53;;;0.17;90.23
71476;BME280;59286;59.274;17.974;2023-01-28T08:59:34;101264.53;;;0.13;90.39
71476;BME280;59286;59.274;17.974;2023-01-28T09:01:59;101277.13;;;0.21;90.40
71476;BME280;59286;59.274;17.974;2023-01-28T09:04:24;101263.25;;;0.22;90.48
71476;BME280;59286;59.274;17.974;2023-01-28T09:06:50;101259.06;;;0.27;90.28
71476;BME280;59286;59.274;17.974;2023-01-28T09:09:15;101263.59;;;0.32;90.23
71476;BME280;59286;59.274;17.974;2023-01-28T09:11:40;101258.81;;;0.35;90.27
71476;BME280;59286;59.274;17.974;2023-01-28T09:14:06;101257.69;;;0.49;90.13
71476;BME280;59286;59.274;17.974;2023-01-28T09:16:31;101253.53;;;0.48;90.07
71476;BME280;59286;59.274;17.974;2023-01-28T09:18:56;101245.22;;;0.46;89.74
71476;BME280;59286;59.274;17.974;2023-01-28T09:21:21;101238.44;;;0.52;89.78
71476;BME280;59286;59.274;17.974;2023-01-28T09:23:47;101232.00;;;0.61;89.96
71476;BME280;59286;59.274;17.974;2023-01-28T09:26:13;101232.03;;;0.54;89.90
71476;BME280;59286;59.274;17.974;2023-01-28T09:28:38;101235.00;;;0.58;90.04
71476;BME280;59286;59.274;17.974;2023-01-28T09:31:06;101234.78;;;0.59;90.22
71476;BME280;59286;59.274;17.974;2023-01-28T09:33:32;101207.03;;;0.55;90.81
71476;BME280;59286;59.274;17.974;2023-01-28T09:35:59;101191.16;;;0.58;90.64
71476;BME280;59286;59.274;17.974;2023-01-28T09:38:25;101182.47;;;0.52;90.35
71476;BME280;59286;59.274;17.974;2023-01-28T09:40:50;101180.53;;;0.48;90.73
71476;BME280;59286;59.274;17.974;2023-01-28T09:46:03;101184.41;;;0.57;91.08
71476;BME280;59286;59.274;17.974;2023-01-28T09:48:35;101189.56;;;0.75;91.26
71476;BME280;59286;59.274;17.974;2023-01-28T09:51:02;101181.78;;;0.81;90.77
71476;BME280;59286;59.274;17.974;2023-01-28T09:53:36;101178.53;;;0.86;90.48
71476;BME280;59286;59.274;17.974;2023-01-28T09:56:04;101168.59;;;0.89;90.62
71476;BME280;59286;59.274;17.974;2023-01-28T09:58:32;101173.09;;;0.94;90.77
71476;BME280;59286;59.274;17.974;2023-01-28T10:01:20;101182.09;;;1.03;90.61
71476;BME280;59286;59.274;17.974;2023-01-28T10:07:02;101178.94;;;1.19;90.62
71476;BME280;59286;59.274;17.974;2023-01-28T10:15:23;101173.03;;;1.30;89.94
71476;BME280;59286;59.274;17.974;2023-01-28T10:17:56;101149.66;;;1.25;89.87
71476;BME280;59286;59.274;17.974;2023-01-28T10:20:26;101144.66;;;1.30;90.00
71476;BME280;59286;59.274;17.974;2023-01-28T10:23:18;101149.28;;;1.40;89.80
71476;BME280;59286;59.274;17.974;2023-01-28T10:25:46;101136.50;;;1.45;89.69
71476;BME280;59286;59.274;17.974;2023-01-28T10:28:20;101128.28;;;1.48;89.44
71476;BME280;59286;59.274;17.974;2023-01-28T10:30:48;101132.53;;;1.42;89.53
71476;BME280;59286;59.274;17.974;2023-01-28T10:35:51;101122.78;;;1.44;89.87
71476;BME280;59286;59.274;17.974;2023-01-28T10:38:20;101127.72;;;1.46;89.68
71476;BME280;59286;59.274;17.974;2023-01-28T10:40:47;101101.13;;;1.45;89.84
71476;BME280;59286;59.274;17.974;2023-01-28T10:43:15;101100.56;;;1.55;89.82
71476;BME280;59286;59.274;17.974;2023-01-28T10:45:56;101107.53;;;1.54;89.80
71476;BME280;59286;59.274;17.974;2023-01-28T10:48:25;101097.44;;;1.53;89.87
71476;BME280;59286;59.274;17.974;2023-01-28T10:50:56;101116.19;;;1.60;89.96
71476;BME280;59286;59.274;17.974;2023-01-28T10:53:40;101129.69;;;1.62;90.18
71476;BME280;59286;59.274;17.974;2023-01-28T10:56:27;101121.25;;;1.66;89.73
71476;BME280;59286;59.274;17.974;2023-01-28T11:01:24;101124.53;;;1.73;89.70
71476;BME280;59286;59.274;17.974;2023-01-28T11:03:54;101120.94;;;1.74;89.68
71476;BME280;59286;59.274;17.974;2023-01-28T11:06:26;101125.88;;;1.87;89.49
71476;BME280;59286;59.274;17.974;2023-01-28T11:08:52;101126.22;;;1.91;89.25
71476;BME280;59286;59.274;17.974;2023-01-28T11:11:24;101127.13;;;1.96;89.04
71476;BME280;59286;59.274;17.974;2023-01-28T11:13:52;101126.47;;;2.01;89.31
71476;BME280;59286;59.274;17.974;2023-01-28T11:16:18;101122.06;;;2.02;89.09
71476;BME280;59286;59.274;17.974;2023-01-28T11:21:19;101094.09;;;2.10;89.07
71476;BME280;59286;59.274;17.974;2023-01-28T11:23:54;101107.78;;;2.22;88.81
71476;BME280;59286;59.274;17.974;2023-01-28T11:26:22;101110.25;;;2.29;89.05
71476;BME280;59286;59.274;17.974;2023-01-28T11:28:49;101105.97;;;2.34;88.44
71476;BME280;59286;59.274;17.974;2023-01-28T11:31:17;101107.53;;;2.35;88.30
71476;BME280;59286;59.274;17.974;2023-01-28T11:33:55;101093.84;;;2.35;88.07
71476;BME280;59286;59.274;17.974;2023-01-28T11:36:32;101099.69;;;2.30;88.17
71476;BME280;59286;59.274;17.974;2023-01-28T11:41:46;101106.41;;;2.43;88.91
71476;BME280;59286;59.274;17.974;2023-01-28T11:44:18;101095.97;;;2.38;88.08
71476;BME280;59286;59.274;17.974;2023-01-28T11:47:09;101095.50;;;2.41;88.44
71476;BME280;59286;59.274;17.974;2023-01-28T11:57:37;101087.66;;;2.36;88.60
71476;BME280;59286;59.274;17.974;2023-01-28T12:03:02;101067.97;;;2.35;88.68
71476;BME280;59286;59.274;17.974;2023-01-28T12:08:21;101057.06;;;2.33;88.82
71476;BME280;59286;59.274;17.974;2023-01-28T12:11:17;101063.47;;;2.30;88.91
71476;BME280;59286;59.274;17.974;2023-01-28T12:19:57;101038.41;;;2.31;89.04
71476;BME280;59286;59.274;17.974;2023-01-28T12:25:21;101025.56;;;2.36;89.24
71476;BME280;59286;59.274;17.974;2023-01-28T12:34:27;101022.50;;;2.39;89.06
71476;BME280;59286;59.274;17.974;2023-01-28T12:37:17;101022.97;;;2.36;89.11
71476;BME280;59286;59.274;17.974;2023-01-28T12:45:42;101030.41;;;2.44;89.16
71476;BME280;59286;59.274;17.974;2023-01-28T12:48:20;101026.22;;;2.43;89.02
71476;BME280;59286;59.274;17.974;2023-01-28T12:51:12;101032.50;;;2.47;89.14
71476;BME280;59286;59.274;17.974;2023-01-28T12:54:21;101023.75;;;2.48;88.99
71476;BME280;59286;59.274;17.974;2023-01-28T12:56:49;101015.88;;;2.43;89.08
71476;BME280;59286;59.274;17.974;2023-01-28T12:59:21;101025.53;;;2.47;89.04
71476;BME280;59286;59.274;17.974;2023-01-28T13:07:46;101020.59;;;2.46;89.22
71476;BME280;59286;59.274;17.974;2023-01-28T13:12:40;101017.34;;;2.39;89.57
71476;BME280;59286;59.274;17.974;2023-01-28T13:15:11;101026.22;;;2.43;89.32
71476;BME280;59286;59.274;17.974;2023-01-28T13:17:38;101025.66;;;2.41;89.13
71476;BME280;59286;59.274;17.974;2023-01-28T13:20:14;101036.56;;;2.43;89.31
71476;BME280;59286;59.274;17.974;2023-01-28T13:22:43;101036.25;;;2.39;89.42
71476;BME280;59286;59.274;17.974;2023-01-28T13:25:25;101042.22;;;2.40;89.62
71476;BME280;59286;59.274;17.974;2023-01-28T13:28:27;101031.06;;;2.39;89.53
71476;BME280;59286;59.274;17.974;2023-01-28T13:31:00;101036.94;;;2.35;89.38
71476;BME280;59286;59.274;17.974;2023-01-28T13:33:35;101025.47;;;2.31;89.63
71476;BME280;59286;59.274;17.974;2023-01-28T13:36:49;101020.53;;;2.29;89.75
71476;BME280;59286;59.274;17.974;2023-01-28T13:41:44;101027.94;;;2.26;90.40
71476;BME280;59286;59.274;17.974;2023-01-28T13:44:36;101030.22;;;2.22;90.28
71476;BME280;59286;59.274;17.974;2023-01-28T13:49:38;101036.09;;;2.18;90.36
71476;BME280;59286;59.274;17.974;2023-01-28T13:54:57;101047.41;;;2.17;90.27
71476;BME280;59286;59.274;17.974;2023-01-28T14:08:18;101044.66;;;1.95;91.29
71476;BME280;59286;59.274;17.974;2023-01-28T14:16:40;101046.81;;;1.86;91.44
71476;BME280;59286;59.274;17.974;2023-01-28T14:19:12;101048.34;;;1.87;91.64
71476;BME280;59286;59.274;17.974;2023-01-28T14:21:38;101054.00;;;1.84;92.09
71476;BME280;59286;59.274;17.974;2023-01-28T14:24:05;101037.69;;;1.72;92.34
71476;BME280;59286;59.274;17.974;2023-01-28T14:27:30;101054.41;;;1.81;92.67
71476;BME280;59286;59.274;17.974;2023-01-28T14:30:05;101055.31;;;1.75;92.37
71476;BME280;59286;59.274;17.974;2023-01-28T14:32:34;101056.78;;;1.71;92.78
71476;BME280;59286;59.274;17.974;2023-01-28T14:35:07;101059.81;;;1.68;92.82
71476;BME280;59286;59.274;17.974;2023-01-28T14:37:33;101062.06;;;1.65;92.73
71476;BME280;59286;59.274;17.974;2023-01-28T14:40:02;101066.22;;;1.66;92.71
71476;BME280;59286;59.274;17.974;2023-01-28T14:42:36;101053.50;;;1.64;92.85
71476;BME280;59286;59.274;17.974;2023-01-28T14:53:45;101066.97;;;1.43;93.63